createdAt,value
2023-04-16T00:00:18.231Z,64.92
2023-04-16T00:01:18.180Z,65.74
2023-04-16T00:02:18.229Z,68.05
2023-04-16T00:03:18.301Z,69.04
2023-04-16T00:04:18.182Z,65.06
2023-04-16T00:05:18.144Z,66.50
2023-04-16T00:06:18.096Z,68.29
2023-04-16T00:07:18.088Z,66.55
2023-04-16T00:08:18.064Z,68.46
2023-04-16T00:09:18.054Z,70.87
2023-04-16T00:10:18.054Z,65.84
2023-04-16T00:11:18.005Z,61.85
2023-04-16T00:12:18.002Z,57.56
2023-04-16T00:13:17.967Z,65.55
2023-04-16T00:14:17.954Z,67.46
2023-04-16T00:15:17.960Z,64.91
2023-04-16T00:16:17.946Z,69.08
2023-04-16T00:17:17.947Z,66.95
2023-04-16T00:18:17.881Z,67.76
2023-04-16T00:19:17.868Z,65.31
2023-04-16T00:20:17.880Z,67.02
2023-04-16T00:21:17.831Z,61.50
2023-04-16T00:22:17.813Z,69.33
2023-04-16T00:23:17.800Z,67.64
2023-04-16T00:24:17.780Z,59.34
2023-04-16T00:25:17.786Z,55.74
2023-04-16T00:26:17.741Z,64.89
2023-04-16T00:27:17.727Z,66.59
2023-04-16T00:28:17.711Z,60.71
2023-04-16T00:29:17.688Z,65.54
2023-04-16T00:30:17.702Z,66.11
2023-04-16T00:31:17.674Z,66.82
2023-04-16T00:32:17.656Z,67.93
2023-04-16T00:33:17.626Z,68.61
2023-04-16T00:34:17.603Z,69.62
2023-04-16T00:35:17.611Z,68.81
2023-04-16T00:36:17.567Z,64.16
2023-04-16T00:37:17.558Z,65.13
2023-04-16T00:38:17.528Z,64.49
2023-04-16T00:39:18.517Z,68.44
2023-04-16T00:40:17.531Z,69.71
2023-04-16T00:41:17.482Z,67.47
2023-04-16T00:42:17.504Z,66.65
2023-04-16T00:43:17.449Z,54.39
2023-04-16T00:44:17.431Z,66.07
2023-04-16T00:45:17.443Z,68.74
2023-04-16T00:46:17.410Z,68.53
2023-04-16T00:47:17.445Z,68.17
2023-04-16T00:48:17.359Z,68.24
2023-04-16T00:49:17.341Z,66.33
2023-04-16T00:50:17.350Z,58.03
2023-04-16T00:51:17.306Z,61.89
2023-04-16T00:52:17.281Z,59.54
2023-04-16T00:53:17.278Z,67.68
2023-04-16T00:54:17.259Z,63.81
2023-04-16T00:55:17.265Z,63.85
2023-04-16T00:56:17.781Z,65.37
2023-04-16T00:57:17.197Z,68.48
2023-04-16T00:58:17.198Z,67.43
2023-04-16T00:59:17.167Z,67.65
2023-04-16T01:00:17.177Z,64.32
2023-04-16T01:01:17.154Z,67.81
2023-04-16T01:02:17.362Z,62.87
2023-04-16T01:03:17.233Z,67.50
2023-04-16T01:04:18.218Z,66.69
2023-04-16T01:05:17.092Z,64.07
2023-04-16T01:06:17.045Z,62.31
2023-04-16T01:07:17.021Z,61.83
2023-04-16T01:08:17.027Z,57.35
2023-04-16T01:09:16.991Z,67.78
2023-04-16T01:10:16.999Z,64.07
2023-04-16T01:11:16.956Z,64.84
2023-04-16T01:12:16.955Z,66.08
2023-04-16T01:13:16.933Z,69.30
2023-04-16T01:14:16.918Z,63.56
2023-04-16T01:15:16.918Z,64.82
2023-04-16T01:16:16.894Z,69.55
2023-04-16T01:17:16.856Z,65.57
2023-04-16T01:18:16.871Z,70.06
2023-04-16T01:19:16.830Z,67.05
2023-04-16T01:20:16.822Z,63.48
2023-04-16T01:21:16.783Z,67.24
2023-04-16T01:22:16.766Z,66.39
2023-04-16T01:23:16.748Z,63.30
2023-04-16T01:24:16.732Z,68.00
2023-04-16T01:25:16.788Z,69.27
2023-04-16T01:26:16.693Z,68.30
2023-04-16T01:27:16.681Z,66.39
2023-04-16T01:28:16.653Z,69.79
2023-04-16T01:29:16.650Z,67.31
2023-04-16T01:30:16.654Z,66.88
2023-04-16T01:31:16.635Z,65.36
2023-04-16T01:32:16.588Z,67.86
2023-04-16T01:33:16.580Z,60.56
2023-04-16T01:34:16.554Z,65.27
2023-04-16T01:35:16.561Z,61.96
2023-04-16T01:36:16.522Z,60.21
2023-04-16T01:37:16.503Z,64.77
2023-04-16T01:38:16.495Z,67.68
2023-04-16T01:39:16.574Z,66.98
2023-04-16T01:40:16.476Z,64.02
2023-04-16T01:41:16.430Z,62.77
2023-04-16T01:42:16.413Z,60.38
2023-04-16T01:43:16.398Z,66.74
2023-04-16T01:44:16.379Z,56.69
2023-04-16T01:45:16.391Z,68.00
2023-04-16T01:46:16.491Z,66.68
2023-04-16T01:47:16.349Z,68.27
2023-04-16T01:48:16.306Z,59.52
2023-04-16T01:49:16.288Z,63.16
2023-04-16T01:50:16.294Z,65.48
2023-04-16T01:51:17.261Z,60.84
2023-04-16T01:52:16.239Z,61.01
2023-04-16T01:53:16.220Z,66.32
2023-04-16T01:54:16.207Z,64.83
2023-04-16T01:55:16.221Z,66.59
2023-04-16T01:56:16.170Z,66.73
2023-04-16T01:57:16.150Z,69.68
2023-04-16T01:58:16.132Z,66.08
2023-04-16T01:59:16.115Z,61.99
2023-04-16T02:00:16.117Z,66.59
2023-04-16T02:01:16.149Z,65.84
2023-04-16T02:02:16.157Z,62.00
2023-04-16T02:03:16.264Z,61.97
2023-04-16T02:04:16.061Z,63.63
2023-04-16T02:05:16.040Z,66.78
2023-04-16T02:06:15.992Z,66.28
2023-04-16T02:07:15.977Z,64.93
2023-04-16T02:08:15.957Z,68.30
2023-04-16T02:09:15.940Z,68.45
2023-04-16T02:10:15.951Z,63.71
2023-04-16T02:11:15.909Z,66.57
2023-04-16T02:12:15.891Z,66.93
2023-04-16T02:13:15.867Z,63.11
2023-04-16T02:14:15.854Z,66.15
2023-04-16T02:15:15.877Z,64.56
2023-04-16T02:16:15.861Z,65.76
2023-04-16T02:17:15.805Z,65.32
2023-04-16T02:18:15.780Z,63.66
2023-04-16T02:19:15.766Z,57.99
2023-04-16T02:20:15.768Z,64.74
2023-04-16T02:21:15.732Z,68.49
2023-04-16T02:22:16.511Z,65.57
2023-04-16T02:23:15.686Z,65.37
2023-04-16T02:24:15.671Z,66.54
2023-04-16T02:25:15.682Z,64.83
2023-04-16T02:26:15.633Z,62.61
2023-04-16T02:27:15.614Z,66.93
2023-04-16T02:28:15.602Z,64.97
2023-04-16T02:29:15.580Z,66.96
2023-04-16T02:30:15.595Z,61.59
2023-04-16T02:31:15.609Z,65.71
2023-04-16T02:32:15.604Z,63.46
2023-04-16T02:33:15.520Z,66.04
2023-04-16T02:34:15.498Z,69.78
2023-04-16T02:35:15.499Z,66.78
2023-04-16T02:36:15.462Z,67.87
2023-04-16T02:37:15.443Z,61.04
2023-04-16T02:38:15.423Z,63.31
2023-04-16T02:39:15.404Z,62.77
2023-04-16T02:40:15.412Z,65.18
2023-04-16T02:41:15.366Z,58.15
2023-04-16T02:42:15.350Z,64.80
2023-04-16T02:43:15.329Z,63.44
2023-04-16T02:44:15.317Z,66.57
2023-04-16T02:45:15.335Z,67.39
2023-04-16T02:46:15.317Z,69.56
2023-04-16T02:47:15.264Z,65.60
2023-04-16T02:48:15.244Z,65.10
2023-04-16T02:49:15.228Z,66.59
2023-04-16T02:50:15.234Z,64.27
2023-04-16T02:51:15.193Z,63.91
2023-04-16T02:52:15.730Z,68.80
2023-04-16T02:53:16.156Z,61.89
2023-04-16T02:54:15.133Z,63.76
2023-04-16T02:55:15.151Z,65.61
2023-04-16T02:56:15.126Z,62.95
2023-04-16T02:57:15.080Z,62.38
2023-04-16T02:58:15.065Z,61.25
2023-04-16T02:59:15.049Z,68.14
2023-04-16T03:00:15.061Z,67.78
2023-04-16T03:01:15.077Z,68.92
2023-04-16T03:02:15.028Z,64.98
2023-04-16T03:03:15.032Z,63.74
2023-04-16T03:04:14.997Z,60.32
2023-04-16T03:05:14.976Z,68.63
2023-04-16T03:06:14.920Z,65.37
2023-04-16T03:07:14.902Z,57.23
2023-04-16T03:08:14.882Z,63.97
2023-04-16T03:09:14.868Z,64.68
2023-04-16T03:10:14.886Z,63.61
2023-04-16T03:11:14.832Z,64.99
2023-04-16T03:12:14.808Z,62.94
2023-04-16T03:13:14.795Z,67.55
2023-04-16T03:14:14.775Z,69.30
2023-04-16T03:15:14.775Z,67.26
2023-04-16T03:16:14.825Z,66.75
2023-04-16T03:17:14.719Z,67.05
2023-04-16T03:18:14.696Z,63.68
2023-04-16T03:19:14.679Z,66.95
2023-04-16T03:20:14.687Z,65.28
2023-04-16T03:21:14.644Z,68.59
2023-04-16T03:22:14.629Z,67.34
2023-04-16T03:23:14.614Z,71.44
2023-04-16T03:24:14.588Z,67.64
2023-04-16T03:25:15.609Z,64.96
2023-04-16T03:26:14.552Z,61.47
2023-04-16T03:27:15.533Z,65.48
2023-04-16T03:28:15.523Z,65.86
2023-04-16T03:29:14.507Z,66.96
2023-04-16T03:30:14.527Z,67.16
2023-04-16T03:31:14.513Z,64.27
2023-04-16T03:32:14.886Z,68.17
2023-04-16T03:33:14.555Z,68.32
2023-04-16T03:34:14.421Z,62.36
2023-04-16T03:35:14.427Z,65.72
2023-04-16T03:36:14.388Z,68.20
2023-04-16T03:37:14.365Z,67.23
2023-04-16T03:38:14.352Z,71.78
2023-04-16T03:39:14.332Z,69.05
2023-04-16T03:40:14.337Z,66.19
2023-04-16T03:41:14.300Z,67.12
2023-04-16T03:42:14.279Z,70.01
2023-04-16T03:43:14.264Z,66.67
2023-04-16T03:44:14.250Z,69.09
2023-04-16T03:45:14.253Z,65.48
2023-04-16T03:46:14.252Z,67.16
2023-04-16T03:47:14.189Z,66.61
2023-04-16T03:48:14.174Z,69.25
2023-04-16T03:49:14.156Z,62.10
2023-04-16T03:50:14.160Z,60.78
2023-04-16T03:51:15.123Z,68.48
2023-04-16T03:52:14.112Z,68.48
2023-04-16T03:53:14.087Z,63.81
2023-04-16T03:54:14.067Z,69.09
2023-04-16T03:55:14.081Z,67.95
2023-04-16T03:56:14.037Z,68.11
2023-04-16T03:57:14.018Z,69.12
2023-04-16T03:58:14.011Z,67.15
2023-04-16T03:59:13.990Z,71.57
2023-04-16T04:00:13.995Z,72.82
2023-04-16T04:01:13.954Z,69.85
2023-04-16T04:02:14.034Z,68.83
2023-04-16T04:03:14.098Z,71.02
2023-04-16T04:04:13.990Z,69.81
2023-04-16T04:05:13.917Z,70.04
2023-04-16T04:06:13.857Z,68.28
2023-04-16T04:07:13.839Z,68.61
2023-04-16T04:08:13.820Z,69.82
2023-04-16T04:09:13.801Z,69.66
2023-04-16T04:10:13.813Z,69.49
2023-04-16T04:11:13.772Z,69.25
2023-04-16T04:12:13.755Z,70.34
2023-04-16T04:13:13.747Z,70.05
2023-04-16T04:14:13.723Z,65.22
2023-04-16T04:15:13.728Z,69.34
2023-04-16T04:16:13.709Z,67.86
2023-04-16T04:17:13.668Z,68.82
2023-04-16T04:18:13.639Z,69.91
2023-04-16T04:19:14.635Z,70.68
2023-04-16T04:20:13.633Z,72.67
2023-04-16T04:21:13.589Z,70.64
2023-04-16T04:22:13.567Z,66.20
2023-04-16T04:23:14.555Z,63.31
2023-04-16T04:24:13.536Z,67.33
2023-04-16T04:25:13.553Z,72.14
2023-04-16T04:26:13.522Z,69.92
2023-04-16T04:27:13.487Z,69.11
2023-04-16T04:28:13.469Z,69.20
2023-04-16T04:29:13.453Z,67.93
2023-04-16T04:30:13.463Z,70.68
2023-04-16T04:31:13.420Z,68.53
2023-04-16T04:32:13.393Z,70.90
2023-04-16T04:33:13.384Z,67.67
2023-04-16T04:34:13.351Z,71.36
2023-04-16T04:35:13.361Z,71.29
2023-04-16T04:36:13.323Z,70.38
2023-04-16T04:37:13.308Z,71.48
2023-04-16T04:38:15.582Z,70.41
2023-04-16T04:39:14.287Z,68.16
2023-04-16T04:40:13.286Z,69.66
2023-04-16T04:41:13.238Z,71.26
2023-04-16T04:42:13.225Z,70.70
2023-04-16T04:43:13.195Z,68.94
2023-04-16T04:44:14.179Z,70.43
2023-04-16T04:45:13.196Z,69.62
2023-04-16T04:46:13.238Z,67.05
2023-04-16T04:47:13.128Z,67.33
2023-04-16T04:48:13.191Z,70.59
2023-04-16T04:49:13.128Z,71.20
2023-04-16T04:50:13.118Z,67.39
2023-04-16T04:51:13.095Z,71.70
2023-04-16T04:52:13.093Z,69.64
2023-04-16T04:53:13.021Z,71.00
2023-04-16T04:54:13.013Z,70.57
2023-04-16T04:55:13.015Z,69.77
2023-04-16T04:56:13.316Z,70.77
2023-04-16T04:57:12.952Z,71.32
2023-04-16T04:58:12.935Z,67.22
2023-04-16T04:59:12.925Z,72.89
2023-04-16T05:00:12.929Z,71.85
2023-04-16T05:01:12.957Z,70.11
2023-04-16T05:02:12.906Z,70.94
2023-04-16T05:03:12.919Z,70.30
2023-04-16T05:04:12.921Z,70.89
2023-04-16T05:05:12.877Z,68.74
2023-04-16T05:06:12.800Z,68.04
2023-04-16T05:07:12.785Z,69.68
2023-04-16T05:08:12.767Z,72.40
2023-04-16T05:09:12.750Z,68.13
2023-04-16T05:10:12.762Z,70.43
2023-04-16T05:11:12.717Z,72.94
2023-04-16T05:12:12.700Z,67.83
2023-04-16T05:13:12.675Z,69.81
2023-04-16T05:14:13.317Z,68.60
2023-04-16T05:15:12.671Z,70.47
2023-04-16T05:16:12.670Z,66.53
2023-04-16T05:17:12.618Z,75.49
2023-04-16T05:18:12.596Z,69.17
2023-04-16T05:19:12.602Z,70.57
2023-04-16T05:20:12.588Z,71.32
2023-04-16T05:21:12.537Z,69.75
2023-04-16T05:22:12.529Z,70.63
2023-04-16T05:23:12.505Z,67.79
2023-04-16T05:24:14.765Z,69.64
2023-04-16T05:25:12.499Z,72.12
2023-04-16T05:26:12.458Z,73.30
2023-04-16T05:27:12.442Z,72.29
2023-04-16T05:28:12.419Z,73.91
2023-04-16T05:29:12.494Z,71.29
2023-04-16T05:30:12.408Z,70.70
2023-04-16T05:31:12.369Z,71.65
2023-04-16T05:32:12.352Z,69.16
2023-04-16T05:33:12.332Z,70.07
2023-04-16T05:34:12.309Z,72.57
2023-04-16T05:35:12.324Z,73.02
2023-04-16T05:36:12.276Z,69.56
2023-04-16T05:37:12.378Z,71.80
2023-04-16T05:38:12.242Z,70.16
2023-04-16T05:39:12.222Z,70.49
2023-04-16T05:40:12.232Z,70.13
2023-04-16T05:41:12.181Z,70.34
2023-04-16T05:42:12.166Z,70.30
2023-04-16T05:43:12.150Z,70.24
2023-04-16T05:44:12.128Z,72.87
2023-04-16T05:45:12.139Z,71.81
2023-04-16T05:46:12.195Z,73.21
2023-04-16T05:47:12.087Z,72.83
2023-04-16T05:48:12.054Z,70.46
2023-04-16T05:49:12.142Z,72.84
2023-04-16T05:50:12.056Z,70.58
2023-04-16T05:51:12.029Z,71.26
2023-04-16T05:52:12.993Z,71.38
2023-04-16T05:53:11.971Z,73.77
2023-04-16T05:54:11.992Z,70.86
2023-04-16T05:55:11.979Z,70.21
2023-04-16T05:56:11.947Z,71.54
2023-04-16T05:57:11.899Z,70.65
2023-04-16T05:58:11.886Z,71.45
2023-04-16T05:59:12.120Z,69.03
2023-04-16T06:00:11.848Z,69.51
2023-04-16T06:01:11.866Z,71.64
2023-04-16T06:02:11.887Z,72.44
2023-04-16T06:03:11.928Z,70.03
2023-04-16T06:04:11.966Z,71.69
2023-04-16T06:05:11.779Z,70.72
2023-04-16T06:06:11.768Z,69.66
2023-04-16T06:07:11.724Z,69.02
2023-04-16T06:08:11.709Z,71.32
2023-04-16T06:09:11.988Z,72.12
2023-04-16T06:10:48.823Z,71.01
2023-04-16T06:11:11.661Z,73.15
2023-04-16T06:12:11.641Z,72.96
2023-04-16T06:13:48.690Z,72.41
2023-04-16T06:14:11.610Z,68.90
2023-04-16T06:15:11.597Z,70.78
2023-04-16T06:16:11.674Z,69.19
2023-04-16T06:17:11.564Z,69.47
2023-04-16T06:18:11.661Z,71.54
2023-04-16T06:19:11.727Z,72.82
2023-04-16T06:20:11.519Z,71.83
2023-04-16T06:21:11.530Z,71.67
2023-04-16T06:22:11.469Z,73.42
2023-04-16T06:23:11.488Z,72.10
2023-04-16T06:24:11.440Z,73.52
2023-04-16T06:25:11.433Z,72.56
2023-04-16T06:26:11.433Z,72.17
2023-04-16T06:27:11.404Z,73.73
2023-04-16T06:28:11.378Z,72.06
2023-04-16T06:29:11.547Z,71.63
2023-04-16T06:30:11.342Z,72.70
2023-04-16T06:31:11.359Z,72.37
2023-04-16T06:32:46.450Z,72.74
2023-04-16T06:33:11.291Z,74.35
2023-04-16T06:34:11.272Z,71.94
2023-04-16T06:35:11.260Z,73.43
2023-04-16T06:36:11.279Z,74.89
2023-04-16T06:37:11.217Z,72.30
2023-04-16T06:38:11.203Z,74.09
2023-04-16T06:39:11.372Z,74.03
2023-04-16T06:40:11.194Z,72.45
2023-04-16T06:41:11.181Z,69.26
2023-04-16T06:42:11.130Z,71.54
2023-04-16T06:43:11.114Z,69.74
2023-04-16T06:44:11.100Z,70.95
2023-04-16T06:45:11.089Z,71.67
2023-04-16T06:46:46.206Z,72.45
2023-04-16T06:47:11.103Z,72.83
2023-04-16T06:48:11.030Z,73.06
2023-04-16T06:49:18.654Z,71.69
2023-04-16T06:50:11.000Z,72.30
2023-04-16T06:51:11.022Z,73.21
2023-04-16T06:52:46.055Z,73.13
2023-04-16T06:53:10.953Z,71.54
2023-04-16T06:54:10.935Z,71.25
2023-04-16T06:55:48.080Z,72.07
2023-04-16T06:56:10.898Z,72.12
2023-04-16T06:57:10.883Z,73.14
2023-04-16T06:58:43.420Z,71.04
2023-04-16T06:59:11.051Z,73.10
2023-04-16T07:00:10.844Z,72.84
2023-04-16T07:01:10.887Z,74.53
2023-04-16T07:02:10.951Z,73.58
2023-04-16T07:03:46.007Z,73.28
2023-04-16T07:04:10.849Z,72.55
2023-04-16T07:05:10.753Z,70.32
2023-04-16T07:06:45.882Z,73.72
2023-04-16T07:07:47.814Z,71.64
2023-04-16T07:08:10.710Z,74.04
2023-04-16T07:09:10.876Z,73.60
2023-04-16T07:10:47.793Z,73.85
2023-04-16T07:11:10.666Z,73.18
2023-04-16T07:12:44.249Z,73.75
2023-04-16T07:13:10.640Z,73.73
2023-04-16T07:14:44.192Z,73.17
2023-04-16T07:15:10.620Z,74.90
2023-04-16T07:16:47.779Z,73.76
2023-04-16T07:20:27.925Z,72.69
2023-04-16T07:21:27.908Z,73.88
2023-04-16T07:22:40.054Z,74.69
2023-04-16T07:23:27.844Z,75.67
2023-04-16T07:24:27.824Z,74.84
2023-04-16T07:25:39.993Z,74.77
2023-04-16T07:26:27.815Z,73.78
2023-04-16T07:27:27.766Z,74.03
2023-04-16T07:28:27.763Z,72.67
2023-04-16T07:29:27.740Z,72.69
2023-04-16T07:30:27.714Z,73.84
2023-04-16T07:31:27.761Z,73.92
2023-04-16T07:32:27.697Z,73.69
2023-04-16T07:33:27.663Z,74.98
2023-04-16T07:34:27.648Z,74.54
2023-04-16T07:35:39.824Z,72.24
2023-04-16T07:36:27.640Z,74.38
2023-04-16T07:37:27.601Z,74.08
2023-04-16T07:38:27.579Z,76.03
2023-04-16T07:39:27.560Z,74.30
2023-04-16T07:40:27.544Z,73.58
2023-04-16T07:41:27.553Z,73.37
2023-04-16T07:42:27.501Z,69.78
2023-04-16T07:43:27.489Z,74.70
2023-04-16T07:44:28.595Z,74.27
2023-04-16T07:45:28.584Z,75.25
2023-04-16T07:46:39.361Z,74.23
2023-04-16T07:47:30.581Z,73.96
2023-04-16T07:48:28.545Z,74.71
2023-04-16T07:49:28.521Z,75.96
2023-04-16T07:50:28.515Z,74.81
2023-04-16T07:51:28.504Z,73.70
2023-04-16T07:52:28.466Z,74.22
2023-04-16T07:53:28.441Z,75.29
2023-04-16T07:54:29.195Z,76.67
2023-04-16T07:55:29.412Z,73.91
2023-04-16T07:56:28.421Z,75.67
2023-04-16T07:57:28.372Z,75.78
2023-04-16T07:58:28.357Z,75.94
2023-04-16T07:59:28.518Z,75.18
2023-04-16T08:00:28.318Z,72.88
2023-04-16T08:01:28.332Z,75.23
2023-04-16T08:02:28.365Z,75.36
2023-04-16T08:03:28.556Z,74.59
2023-04-16T08:04:28.485Z,75.17
2023-04-16T08:05:28.260Z,73.89
2023-04-16T08:06:28.238Z,75.08
2023-04-16T08:07:28.196Z,73.94
2023-04-16T08:08:28.171Z,74.30
2023-04-16T08:09:28.290Z,74.78
2023-04-16T08:10:28.798Z,73.98
2023-04-16T08:11:28.157Z,76.46
2023-04-16T08:12:28.110Z,75.65
2023-04-16T08:13:28.098Z,75.62
2023-04-16T08:14:28.080Z,73.78
2023-04-16T08:15:28.096Z,75.55
2023-04-16T08:16:28.148Z,75.34
2023-04-16T08:17:28.056Z,74.76
2023-04-16T08:18:28.010Z,74.22
2023-04-16T08:19:27.986Z,74.64
2023-04-16T08:20:27.976Z,76.24
2023-04-16T08:21:27.972Z,76.25
2023-04-16T08:22:27.932Z,73.26
2023-04-16T08:23:27.912Z,74.04
2023-04-16T08:24:27.901Z,75.30
2023-04-16T08:25:27.885Z,75.06
2023-04-16T08:26:27.890Z,76.88
2023-04-16T08:27:27.844Z,74.76
2023-04-16T08:28:27.821Z,73.81
2023-04-16T08:29:27.807Z,75.79
2023-04-16T08:30:27.786Z,75.93
2023-04-16T08:31:28.831Z,75.27
2023-04-16T08:32:27.776Z,75.71
2023-04-16T08:33:27.739Z,76.51
2023-04-16T08:34:27.713Z,76.62
2023-04-16T08:35:27.699Z,77.25
2023-04-16T08:36:27.709Z,75.65
2023-04-16T08:37:27.664Z,75.92
2023-04-16T08:38:27.652Z,73.91
2023-04-16T08:40:01.224Z,75.34
2023-04-16T08:41:01.405Z,77.37
2023-04-16T08:42:04.709Z,76.83
2023-04-16T08:42:27.591Z,76.64
2023-04-16T08:44:02.642Z,76.96
2023-04-16T08:44:27.576Z,77.48
2023-04-16T08:46:04.701Z,76.51
2023-04-16T08:46:27.569Z,74.87
2023-04-16T08:47:27.575Z,75.63
2023-04-16T08:48:27.498Z,75.57
2023-04-16T08:49:27.477Z,76.07
2023-04-16T08:50:27.463Z,75.64
2023-04-16T08:52:01.066Z,76.38
2023-04-16T08:52:27.433Z,74.58
2023-04-16T08:53:27.416Z,76.82
2023-04-16T08:55:04.479Z,76.17
2023-04-16T08:55:27.384Z,75.95
2023-04-16T08:56:27.387Z,76.54
2023-04-16T08:57:27.350Z,77.38
2023-04-16T08:59:00.917Z,77.63
2023-04-16T08:59:27.326Z,78.99
2023-04-16T09:00:27.302Z,75.80
2023-04-16T09:01:27.326Z,76.92
2023-04-16T09:02:27.406Z,74.89
2023-04-16T09:04:01.155Z,76.90
2023-04-16T09:05:00.834Z,75.72
2023-04-16T09:05:27.210Z,76.17
2023-04-16T09:07:00.818Z,76.49
2023-04-16T09:07:27.195Z,75.65
2023-04-16T09:08:27.172Z,75.64
2023-04-16T09:10:00.739Z,76.26
2023-04-16T09:10:27.139Z,72.87
2023-04-16T09:11:27.147Z,74.73
